createdAt,value
2023-05-09T00:02:18.493Z,64.68
2023-05-09T00:04:45.958Z,64.74
2023-05-09T00:07:13.206Z,63.77
2023-05-09T00:09:40.085Z,62.92
2023-05-09T00:12:08.252Z,58.61
2023-05-09T00:14:35.408Z,56.15
2023-05-09T00:17:02.252Z,56.23
2023-05-09T00:19:29.443Z,57.04
2023-05-09T00:21:56.838Z,58.55
2023-05-09T00:24:23.682Z,60.12
2023-05-09T00:26:54.764Z,60.63
2023-05-09T00:29:25.367Z,61.87
2023-05-09T00:31:54.328Z,65.79
2023-05-09T00:34:26.457Z,67.85
2023-05-09T00:36:55.933Z,65.99
2023-05-09T00:39:25.705Z,63.62
2023-05-09T00:41:58.243Z,60.34
2023-05-09T00:44:31.711Z,58.40
2023-05-09T00:47:02.037Z,56.69
2023-05-09T00:49:29.484Z,57.94
2023-05-09T00:51:57.224Z,59.63
2023-05-09T00:54:24.404Z,60.33
2023-05-09T00:56:52.286Z,63.62
2023-05-09T00:59:19.338Z,67.67
2023-05-09T01:01:46.710Z,67.89
2023-05-09T01:04:14.906Z,65.01
2023-05-09T01:07:03.773Z,63.60
2023-05-09T01:10:02.286Z,61.26
2023-05-09T01:12:47.967Z,59.63
2023-05-09T01:15:15.653Z,56.05
2023-05-09T01:17:58.053Z,57.09
2023-05-09T01:20:34.449Z,58.93
2023-05-09T01:23:31.526Z,61.28
2023-05-09T01:26:03.605Z,65.64
2023-05-09T01:29:08.126Z,67.79
2023-05-09T01:31:41.212Z,62.93
2023-05-09T01:34:10.988Z,61.87
2023-05-09T01:36:42.887Z,60.84
2023-05-09T01:39:14.301Z,57.56
2023-05-09T01:41:41.577Z,56.07
2023-05-09T01:44:12.210Z,57.86
2023-05-09T01:46:40.518Z,58.67
2023-05-09T01:49:09.880Z,62.35
2023-05-09T01:51:39.540Z,65.81
2023-05-09T01:54:07.503Z,66.70
2023-05-09T01:56:36.569Z,65.15
2023-05-09T01:59:06.932Z,62.93
2023-05-09T02:01:35.310Z,62.42
2023-05-09T02:04:05.450Z,61.57
2023-05-09T02:06:33.403Z,59.02
2023-05-09T02:09:02.118Z,55.71
2023-05-09T02:11:29.023Z,55.89
2023-05-09T02:13:55.836Z,56.08
2023-05-09T02:16:22.879Z,57.99
2023-05-09T02:18:50.302Z,60.27
2023-05-09T02:21:17.675Z,64.44
2023-05-09T02:23:44.969Z,67.65
2023-05-09T02:26:12.382Z,67.13
2023-05-09T02:28:40.065Z,64.74
2023-05-09T02:31:09.726Z,61.69
2023-05-09T02:33:39.622Z,61.13
2023-05-09T02:36:07.487Z,57.58
2023-05-09T02:38:36.534Z,55.59
2023-05-09T02:41:03.709Z,55.57
2023-05-09T02:43:30.744Z,56.68
2023-05-09T02:45:57.730Z,57.95
2023-05-09T02:48:24.675Z,59.17
2023-05-09T02:50:51.588Z,59.83
2023-05-09T02:53:18.445Z,64.06
2023-05-09T02:55:45.560Z,68.65
2023-05-09T02:58:14.574Z,65.42
2023-05-09T03:00:43.276Z,63.56
2023-05-09T03:03:12.564Z,62.02
2023-05-09T03:05:47.989Z,58.85
2023-05-09T03:08:20.872Z,57.71
2023-05-09T03:10:56.940Z,61.98
2023-05-09T03:13:24.098Z,64.88
2023-05-09T03:15:51.390Z,64.53
2023-05-09T03:18:19.156Z,62.79
2023-05-09T03:20:46.677Z,61.87
2023-05-09T03:23:13.678Z,59.68
2023-05-09T03:25:40.665Z,59.06
2023-05-09T03:28:07.469Z,61.70
2023-05-09T03:30:34.637Z,64.35
2023-05-09T03:33:01.856Z,64.44
2023-05-09T03:35:28.915Z,61.95
2023-05-09T03:37:55.741Z,61.13
2023-05-09T03:40:23.047Z,59.34
2023-05-09T03:42:50.076Z,59.90
2023-05-09T03:45:17.198Z,61.32
2023-05-09T03:47:44.043Z,63.34
2023-05-09T03:50:11.283Z,66.08
2023-05-09T03:52:38.227Z,64.56
2023-05-09T03:55:06.085Z,62.95
2023-05-09T03:57:35.076Z,61.88
2023-05-09T04:00:03.746Z,60.40
2023-05-09T04:02:31.491Z,59.30
2023-05-09T04:04:59.194Z,57.21
2023-05-09T04:07:28.675Z,58.50
2023-05-09T04:09:56.405Z,59.58
2023-05-09T04:12:23.750Z,62.26
2023-05-09T04:14:52.087Z,65.67
2023-05-09T04:17:19.349Z,65.29
2023-05-09T04:19:46.276Z,62.83
2023-05-09T04:22:13.405Z,60.65
2023-05-09T04:24:40.598Z,57.64
2023-05-09T04:27:08.522Z,56.39
2023-05-09T04:29:36.839Z,58.05
2023-05-09T04:32:05.515Z,60.80
2023-05-09T04:34:32.539Z,62.96
2023-05-09T04:37:02.565Z,65.57
2023-05-09T04:39:40.135Z,65.65
2023-05-09T04:42:11.606Z,62.70
2023-05-09T04:44:43.902Z,58.91
2023-05-09T04:47:18.584Z,57.50
2023-05-09T04:49:45.762Z,60.42
2023-05-09T04:52:12.659Z,60.72
2023-05-09T04:54:39.710Z,63.05
2023-05-09T04:57:17.449Z,65.16
2023-05-09T04:59:45.281Z,63.59
2023-05-09T05:02:13.192Z,58.57
2023-05-09T05:04:40.124Z,57.44
2023-05-09T05:07:07.366Z,59.28
2023-05-09T05:09:34.487Z,60.58
2023-05-09T05:12:03.686Z,62.98
2023-05-09T05:14:31.892Z,62.85
2023-05-09T05:16:58.805Z,60.19
2023-05-09T05:19:26.086Z,58.04
2023-05-09T05:21:53.078Z,57.38
2023-05-09T05:24:20.028Z,58.47
2023-05-09T05:26:47.086Z,60.64
2023-05-09T05:29:14.242Z,60.17
2023-05-09T05:31:41.209Z,62.79
2023-05-09T05:34:08.117Z,63.84
2023-05-09T05:36:34.962Z,61.66
2023-05-09T05:39:01.789Z,58.46
2023-05-09T05:41:28.643Z,56.15
2023-05-09T05:43:55.560Z,58.72
2023-05-09T05:46:23.283Z,59.57
2023-05-09T05:48:50.479Z,61.32
2023-05-09T05:51:17.442Z,62.13
2023-05-09T05:53:44.567Z,63.22
2023-05-09T05:56:11.400Z,61.69
2023-05-09T05:58:38.675Z,56.46
2023-05-09T06:01:05.827Z,56.58
2023-05-09T06:03:32.889Z,57.84
2023-05-09T06:06:00.121Z,59.57
2023-05-09T06:08:27.143Z,60.22
2023-05-09T06:10:54.152Z,61.52
2023-05-09T06:13:21.342Z,61.59
2023-05-09T06:15:48.717Z,62.72
2023-05-09T06:18:15.829Z,59.95
2023-05-09T06:20:42.881Z,57.34
2023-05-09T06:23:09.918Z,57.94
2023-05-09T06:25:36.864Z,59.03
2023-05-09T06:28:04.559Z,59.66
2023-05-09T06:30:31.800Z,60.64
2023-05-09T06:32:59.022Z,61.11
2023-05-09T06:35:27.217Z,60.92
2023-05-09T06:37:54.161Z,60.72
2023-05-09T06:40:21.600Z,60.55
2023-05-09T06:42:48.681Z,61.22
2023-05-09T06:45:16.141Z,60.51
2023-05-09T06:47:43.470Z,60.15
2023-05-09T06:50:10.701Z,60.30
2023-05-09T06:52:37.549Z,60.01
2023-05-09T06:55:04.852Z,59.90
2023-05-09T06:57:32.076Z,59.55
2023-05-09T06:59:58.984Z,59.52
2023-05-09T07:02:26.201Z,59.57
2023-05-09T07:04:53.262Z,59.13
2023-05-09T07:07:20.970Z,58.28
2023-05-09T07:09:49.325Z,58.15
2023-05-09T07:12:19.993Z,58.14
2023-05-09T07:14:46.928Z,57.81
2023-05-09T07:17:22.140Z,56.80
2023-05-09T07:19:51.473Z,56.15
2023-05-09T07:22:18.788Z,56.39
2023-05-09T07:24:46.964Z,55.91
2023-05-09T07:27:14.658Z,55.71
2023-05-09T07:29:41.761Z,55.15
2023-05-09T07:32:09.210Z,55.48
2023-05-09T07:34:37.244Z,55.66
2023-05-09T07:37:04.336Z,55.51
2023-05-09T07:39:31.547Z,54.34
2023-05-09T07:41:58.836Z,53.92
2023-05-09T07:44:26.432Z,54.07
2023-05-09T07:46:55.720Z,53.70
2023-05-09T07:49:22.618Z,53.80
2023-05-09T07:51:49.634Z,53.86
2023-05-09T07:54:16.705Z,53.06
2023-05-09T07:56:43.626Z,52.83
2023-05-09T07:59:11.101Z,52.82
2023-05-09T08:01:38.562Z,52.55
2023-05-09T08:04:07.192Z,52.73
2023-05-09T08:06:34.393Z,52.15
2023-05-09T08:09:01.339Z,52.06
2023-05-09T08:11:28.998Z,51.99
2023-05-09T08:13:56.126Z,52.03
2023-05-09T08:16:23.229Z,51.24
2023-05-09T08:18:50.651Z,51.21
2023-05-09T08:21:19.157Z,51.14
2023-05-09T08:23:47.391Z,51.27
2023-05-09T08:26:14.986Z,51.22
2023-05-09T08:28:42.446Z,50.63
2023-05-09T08:31:09.894Z,50.72
2023-05-09T08:33:37.065Z,50.36
2023-05-09T08:36:04.991Z,50.74
2023-05-09T08:38:32.375Z,50.39
2023-05-09T08:41:03.322Z,49.32
2023-05-09T08:43:33.691Z,49.07
2023-05-09T08:46:06.057Z,49.40
2023-05-09T08:48:37.830Z,49.23
2023-05-09T08:51:06.600Z,49.40
2023-05-09T08:53:35.021Z,49.36
2023-05-09T08:56:04.488Z,49.01
2023-05-09T08:58:33.882Z,48.82
2023-05-09T09:01:05.078Z,49.19
2023-05-09T09:03:33.393Z,48.44
2023-05-09T09:06:01.349Z,47.76
2023-05-09T09:08:29.679Z,47.67
2023-05-09T09:10:57.156Z,47.49
2023-05-09T09:13:25.044Z,48.01
2023-05-09T09:15:53.654Z,48.11
2023-05-09T09:18:28.656Z,48.09
2023-05-09T09:21:07.411Z,47.48
2023-05-09T09:23:35.154Z,47.56
2023-05-09T09:26:05.167Z,47.36
2023-05-09T09:28:33.079Z,46.73
2023-05-09T09:31:00.012Z,46.33
2023-05-09T09:33:29.298Z,46.91
2023-05-09T09:35:57.778Z,45.86
2023-05-09T09:38:26.076Z,45.88
2023-05-09T09:40:52.868Z,45.43
2023-05-09T09:43:20.228Z,45.24
2023-05-09T09:45:51.779Z,45.01
2023-05-09T09:48:18.795Z,44.93
2023-05-09T09:50:48.978Z,45.35
2023-05-09T09:53:16.747Z,45.09
2023-05-09T09:55:53.670Z,44.99
2023-05-09T09:58:25.388Z,45.49
2023-05-09T10:01:25.850Z,45.14
2023-05-09T10:03:53.188Z,44.48
2023-05-09T10:06:20.982Z,44.33
2023-05-09T10:08:49.416Z,43.79
2023-05-09T10:11:17.118Z,43.94
2023-05-09T10:13:45.745Z,44.42
2023-05-09T10:16:14.753Z,44.48
2023-05-09T10:18:43.673Z,43.44
2023-05-09T10:21:15.680Z,43.33
2023-05-09T10:23:47.819Z,43.41
2023-05-09T10:26:25.904Z,43.24
2023-05-09T10:28:56.411Z,42.80
2023-05-09T10:31:27.539Z,42.33
2023-05-09T10:33:59.349Z,42.27
2023-05-09T10:36:29.090Z,41.88
2023-05-09T10:38:56.563Z,41.90
2023-05-09T10:41:24.369Z,42.52
2023-05-09T10:43:52.148Z,42.60
2023-05-09T10:46:20.018Z,42.17
2023-05-09T10:48:48.683Z,41.67
2023-05-09T10:51:16.918Z,42.37
2023-05-09T10:53:48.883Z,41.36
2023-05-09T10:56:33.104Z,41.49
2023-05-09T10:59:01.147Z,40.69
2023-05-09T11:01:37.841Z,40.70
2023-05-09T11:04:14.802Z,39.83
2023-05-09T11:06:49.548Z,39.80
2023-05-09T11:09:39.229Z,39.63
2023-05-09T11:12:06.245Z,39.18
2023-05-09T11:14:36.147Z,39.17
2023-05-09T11:17:05.296Z,39.76
2023-05-09T11:19:59.277Z,39.75
2023-05-09T11:22:28.977Z,39.59
2023-05-09T11:25:06.145Z,38.65
2023-05-09T11:27:45.353Z,38.67
2023-05-09T11:30:15.168Z,38.65
2023-05-09T11:32:56.329Z,39.03
2023-05-09T11:35:26.704Z,39.22
2023-05-09T11:38:00.833Z,38.74
2023-05-09T11:40:29.122Z,38.97
2023-05-09T11:42:59.406Z,38.37
2023-05-09T11:45:31.748Z,37.64
2023-05-09T11:47:59.505Z,37.77
2023-05-09T11:50:26.634Z,37.86
2023-05-09T11:52:54.380Z,37.84
2023-05-09T11:55:23.133Z,38.25
2023-05-09T11:57:54.915Z,38.15
2023-05-09T12:00:24.338Z,38.22
2023-05-09T12:02:53.035Z,37.98
2023-05-09T12:05:22.183Z,37.88
2023-05-09T12:07:49.548Z,37.86
2023-05-09T12:10:20.679Z,36.96
2023-05-09T12:12:49.879Z,36.58
2023-05-09T12:15:18.265Z,36.80
2023-05-09T12:17:47.698Z,36.76
2023-05-09T12:20:16.638Z,36.30
2023-05-09T12:22:44.359Z,35.43
2023-05-09T12:25:12.602Z,35.65
2023-05-09T12:27:41.555Z,35.86
2023-05-09T12:30:11.074Z,35.52
2023-05-09T12:32:40.562Z,34.55
2023-05-09T12:35:10.796Z,34.59
2023-05-09T12:37:38.038Z,34.64
2023-05-09T12:40:08.949Z,34.30
2023-05-09T12:42:36.362Z,34.50
2023-05-09T12:45:04.190Z,34.78
2023-05-09T12:47:32.796Z,34.54
2023-05-09T12:50:04.534Z,34.82
2023-05-09T12:52:39.772Z,34.79
2023-05-09T12:55:14.576Z,34.55
2023-05-09T12:57:43.542Z,34.16
2023-05-09T13:00:12.458Z,34.66
2023-05-09T13:02:42.263Z,35.19
2023-05-09T13:05:11.196Z,34.78
2023-05-09T13:07:46.311Z,34.82
2023-05-09T13:10:23.999Z,34.55
2023-05-09T13:12:52.698Z,34.45
2023-05-09T13:15:22.743Z,34.48
2023-05-09T13:17:51.341Z,34.51
2023-05-09T13:20:19.843Z,34.35
2023-05-09T13:22:47.707Z,34.86
2023-05-09T13:25:14.782Z,35.47
2023-05-09T13:27:41.720Z,35.29
2023-05-09T13:30:09.274Z,34.11
2023-05-09T13:32:39.250Z,34.03
2023-05-09T13:35:08.248Z,34.24
2023-05-09T13:37:35.851Z,34.22
2023-05-09T13:40:03.804Z,34.04
2023-05-09T13:42:31.560Z,33.89
2023-05-09T13:44:58.396Z,33.72
2023-05-09T13:47:25.369Z,33.31
2023-05-09T13:49:53.006Z,33.25
2023-05-09T13:52:20.366Z,33.36
2023-05-09T13:54:47.503Z,33.36
2023-05-09T13:57:14.776Z,33.84
2023-05-09T13:59:41.911Z,33.82
2023-05-09T14:02:11.173Z,34.07
2023-05-09T14:04:38.049Z,34.34
2023-05-09T14:07:05.609Z,34.79
2023-05-09T14:09:40.382Z,34.90
2023-05-09T14:12:07.581Z,35.04
2023-05-09T14:14:34.625Z,34.98
2023-05-09T14:17:01.765Z,35.43
2023-05-09T14:19:30.259Z,35.76
2023-05-09T14:21:57.309Z,36.13
2023-05-09T14:24:24.247Z,36.02
2023-05-09T14:26:51.630Z,36.01
2023-05-09T14:29:18.774Z,35.79
2023-05-09T14:31:45.888Z,36.24
2023-05-09T14:34:13.886Z,36.44
2023-05-09T14:36:41.254Z,36.63
2023-05-09T14:39:08.483Z,36.85
2023-05-09T14:41:36.121Z,36.68
2023-05-09T14:44:04.037Z,36.76
2023-05-09T14:46:31.432Z,36.45
2023-05-09T14:49:04.462Z,36.42
2023-05-09T14:51:33.719Z,36.68
2023-05-09T14:54:03.834Z,36.89
2023-05-09T14:56:32.402Z,36.83
2023-05-09T14:58:59.273Z,37.09
2023-05-09T15:01:26.327Z,37.14
2023-05-09T15:03:53.384Z,37.31
2023-05-09T15:06:20.866Z,37.29
2023-05-09T15:08:48.049Z,37.33
2023-05-09T15:11:15.000Z,37.09
2023-05-09T15:13:42.058Z,37.24
2023-05-09T15:16:09.464Z,37.28
2023-05-09T15:18:37.155Z,37.28
2023-05-09T15:21:04.497Z,37.08
2023-05-09T15:23:31.629Z,37.11
2023-05-09T15:25:58.591Z,37.14
2023-05-09T15:28:25.991Z,37.20
2023-05-09T15:30:53.754Z,37.15
2023-05-09T15:33:21.165Z,37.51
2023-05-09T15:35:50.614Z,37.45
2023-05-09T15:38:17.725Z,37.46
2023-05-09T15:40:45.023Z,37.62
2023-05-09T15:43:21.177Z,37.68
2023-05-09T15:46:06.641Z,37.88
2023-05-09T15:48:46.370Z,38.10
2023-05-09T15:51:27.600Z,38.08
2023-05-09T15:53:54.461Z,38.10
2023-05-09T15:56:22.009Z,38.18
2023-05-09T15:58:49.167Z,38.10
2023-05-09T16:01:16.535Z,37.84
2023-05-09T16:03:43.649Z,38.10
2023-05-09T16:06:11.018Z,38.20
2023-05-09T16:08:37.958Z,38.02
2023-05-09T16:11:05.640Z,37.95
2023-05-09T16:13:34.333Z,38.07
2023-05-09T16:16:02.898Z,38.10
2023-05-09T16:18:30.149Z,38.04
2023-05-09T16:20:57.184Z,37.94
2023-05-09T16:23:25.068Z,37.78
2023-05-09T16:25:52.114Z,37.89
2023-05-09T16:28:20.194Z,37.97
2023-05-09T16:30:47.109Z,37.96
2023-05-09T16:33:14.141Z,38.04
2023-05-09T16:35:41.612Z,37.87
2023-05-09T16:38:08.534Z,38.04
2023-05-09T16:40:35.586Z,38.25
2023-05-09T16:43:02.730Z,38.47
2023-05-09T16:45:29.714Z,38.51
2023-05-09T16:47:58.951Z,38.53
2023-05-09T16:50:29.189Z,38.59
2023-05-09T16:52:56.134Z,38.86
2023-05-09T16:55:23.005Z,39.04
2023-05-09T16:57:50.030Z,39.13
2023-05-09T17:00:18.453Z,39.24
2023-05-09T17:02:45.385Z,39.29
2023-05-09T17:05:12.486Z,39.39
2023-05-09T17:07:39.802Z,39.49
2023-05-09T17:10:07.959Z,39.45
2023-05-09T17:12:35.556Z,39.53
2023-05-09T17:15:02.809Z,39.62
2023-05-09T17:17:30.134Z,39.60
2023-05-09T17:19:57.994Z,39.73
2023-05-09T17:22:25.164Z,39.82
2023-05-09T17:24:52.293Z,40.07
2023-05-09T17:27:19.577Z,40.26
2023-05-09T17:29:46.679Z,40.37
2023-05-09T17:32:14.082Z,40.41
2023-05-09T17:34:41.085Z,40.58
2023-05-09T17:37:09.380Z,40.74
2023-05-09T17:39:39.661Z,40.78
2023-05-09T17:42:07.250Z,40.95
2023-05-09T17:44:34.741Z,40.91
2023-05-09T17:47:02.383Z,40.98
2023-05-09T17:49:30.194Z,40.97
2023-05-09T17:51:57.485Z,41.00
2023-05-09T17:54:24.971Z,41.03
2023-05-09T17:56:59.428Z,41.19
2023-05-09T17:59:26.724Z,41.29
2023-05-09T18:01:54.696Z,41.48
2023-05-09T18:04:22.520Z,41.45
2023-05-09T18:06:50.323Z,41.65
2023-05-09T18:09:17.683Z,41.66
2023-05-09T18:11:44.924Z,41.79
2023-05-09T18:14:13.198Z,41.76
2023-05-09T18:16:40.086Z,41.82
2023-05-09T18:19:07.326Z,42.08
2023-05-09T18:21:34.680Z,42.37
2023-05-09T18:24:02.042Z,42.34
2023-05-09T18:26:29.355Z,42.67
2023-05-09T18:28:56.844Z,42.75
2023-05-09T18:31:24.068Z,42.78
2023-05-09T18:33:51.889Z,42.96
2023-05-09T18:36:19.686Z,43.13
2023-05-09T18:38:48.062Z,43.28
2023-05-09T18:41:16.200Z,43.29
2023-05-09T18:43:46.850Z,43.43
2023-05-09T18:46:18.151Z,43.42
2023-05-09T18:48:50.453Z,43.38
2023-05-09T18:51:18.946Z,43.37
2023-05-09T18:53:47.814Z,43.35
2023-05-09T18:56:15.291Z,43.41
2023-05-09T18:58:42.130Z,43.49
2023-05-09T19:01:11.875Z,43.55
2023-05-09T19:03:45.849Z,43.53
2023-05-09T19:06:14.366Z,43.62
2023-05-09T19:08:42.607Z,43.71
2023-05-09T19:11:11.866Z,43.76
2023-05-09T19:13:40.987Z,43.88
2023-05-09T19:16:09.324Z,44.10
2023-05-09T19:18:36.675Z,44.06
2023-05-09T19:21:03.979Z,44.23
2023-05-09T19:23:31.113Z,44.31
2023-05-09T19:25:58.124Z,44.43
2023-05-09T19:28:25.208Z,44.64
2023-05-09T19:30:52.537Z,44.77
2023-05-09T19:33:19.920Z,44.96
2023-05-09T19:35:46.957Z,45.12
2023-05-09T19:38:13.913Z,45.44
2023-05-09T19:40:41.727Z,45.57
2023-05-09T19:43:08.716Z,45.49
2023-05-09T19:45:35.756Z,45.62
2023-05-09T19:48:02.812Z,45.85
2023-05-09T19:50:31.279Z,46.09
2023-05-09T19:52:58.841Z,46.19
2023-05-09T19:55:26.488Z,46.54
2023-05-09T19:57:53.410Z,46.59
2023-05-09T20:00:20.482Z,46.73
2023-05-09T20:02:47.598Z,46.94
2023-05-09T20:05:14.678Z,47.31
2023-05-09T20:07:42.813Z,47.23
2023-05-09T20:10:13.056Z,47.47
2023-05-09T20:12:40.613Z,47.34
2023-05-09T20:15:08.820Z,47.58
2023-05-09T20:17:35.782Z,47.93
2023-05-09T20:20:02.771Z,47.89
2023-05-09T20:22:30.283Z,48.17
2023-05-09T20:24:57.379Z,48.11
2023-05-09T20:27:24.372Z,48.33
2023-05-09T20:29:51.725Z,48.39
2023-05-09T20:32:18.999Z,48.75
2023-05-09T20:34:46.445Z,48.84
2023-05-09T20:37:13.808Z,49.07
2023-05-09T20:39:40.683Z,49.23
2023-05-09T20:42:22.610Z,49.47
2023-05-09T20:44:50.583Z,49.45
2023-05-09T20:47:17.950Z,49.99
2023-05-09T20:49:44.738Z,50.05
2023-05-09T20:52:11.784Z,50.10
2023-05-09T20:54:38.988Z,50.34
2023-05-09T20:57:06.094Z,50.53
2023-05-09T20:59:33.157Z,50.78
2023-05-09T21:02:00.530Z,50.82
2023-05-09T21:04:28.166Z,51.02
2023-05-09T21:06:55.210Z,51.20
2023-05-09T21:09:22.526Z,51.60
2023-05-09T21:11:49.679Z,51.58
2023-05-09T21:14:16.727Z,51.74
2023-05-09T21:16:50.229Z,51.76
2023-05-09T21:19:25.195Z,51.91
2023-05-09T21:21:52.088Z,51.87
2023-05-09T21:24:19.176Z,52.04
2023-05-09T21:26:46.318Z,51.93
2023-05-09T21:29:13.226Z,52.13
2023-05-09T21:31:40.176Z,52.54
2023-05-09T21:34:10.389Z,52.55
2023-05-09T21:36:41.113Z,52.89
2023-05-09T21:39:12.079Z,52.94
2023-05-09T21:41:39.737Z,53.05
2023-05-09T21:44:11.590Z,52.43
2023-05-09T21:46:38.613Z,53.01
2023-05-09T21:49:05.961Z,53.34
2023-05-09T21:51:33.583Z,53.77
2023-05-09T21:54:06.483Z,53.83
2023-05-09T21:56:46.385Z,53.77
2023-05-09T21:59:13.313Z,53.79
2023-05-09T22:01:40.069Z,53.99
2023-05-09T22:04:07.690Z,54.16
2023-05-09T22:06:34.634Z,54.27
2023-05-09T22:09:01.605Z,54.43
2023-05-09T22:11:28.314Z,54.34
2023-05-09T22:13:55.610Z,54.98
2023-05-09T22:16:23.009Z,55.21
2023-05-09T22:18:50.077Z,55.02
2023-05-09T22:21:16.960Z,55.13
2023-05-09T22:23:44.271Z,55.57
2023-05-09T22:26:11.216Z,55.56
2023-05-09T22:28:38.145Z,55.51
2023-05-09T22:31:08.405Z,55.92
2023-05-09T22:33:35.237Z,55.90
2023-05-09T22:36:02.671Z,56.40
2023-05-09T22:38:29.406Z,56.45
2023-05-09T22:40:56.162Z,56.36
2023-05-09T22:43:24.254Z,56.55
2023-05-09T22:45:53.665Z,56.54
2023-05-09T22:48:20.684Z,56.83
2023-05-09T22:50:47.521Z,56.91
2023-05-09T22:53:14.439Z,57.06
2023-05-09T22:55:41.689Z,57.00
2023-05-09T22:58:08.745Z,57.20
2023-05-09T23:00:36.122Z,57.49
2023-05-09T23:03:06.053Z,57.55
2023-05-09T23:05:33.289Z,57.56
2023-05-09T23:08:00.125Z,57.77
2023-05-09T23:10:27.447Z,57.57
2023-05-09T23:12:54.212Z,57.66
2023-05-09T23:15:21.229Z,57.52
2023-05-09T23:17:48.087Z,57.83
2023-05-09T23:20:15.962Z,57.88
2023-05-09T23:22:43.093Z,57.96
2023-05-09T23:25:10.255Z,57.89
2023-05-09T23:27:40.809Z,57.71
2023-05-09T23:30:09.927Z,57.57
2023-05-09T23:32:37.496Z,58.06
2023-05-09T23:35:05.995Z,58.26
2023-05-09T23:37:33.014Z,58.00
2023-05-09T23:39:59.884Z,58.25
2023-05-09T23:42:26.724Z,58.59
2023-05-09T23:44:53.655Z,58.87
2023-05-09T23:47:20.847Z,58.52
2023-05-09T23:49:48.086Z,58.88
2023-05-09T23:52:15.961Z,59.21
2023-05-09T23:54:42.874Z,59.23
2023-05-09T23:57:10.324Z,59.28
2023-05-09T23:59:37.256Z,59.30
